Time;durP1;ratioP1;P1;durP2;ratioP2;P2;SDS_P1;SDS_P2;PMS_P1;PMS_P2;Temp;Humidity;BMP_temperature;BMP_pressure;BME280_temperature;BME280_humidity;BME280_pressure;Samples;Min_cycle;Max_cycle;Signal;HPM_P1;HPM_P2
2022/05/30 00:02:19;;;;;;;5.43;3.95;;;10.70;99.90;;;;;;5078001;28;20527;-68
2022/05/30 00:04:46;;;;;;;5.18;4.78;;;10.70;99.90;;;;;;5077287;28;20206;-68
2022/05/30 00:07:14;;;;;;;4.50;4.10;;;10.80;99.90;;;;;;5077283;28;20202;-68
2022/05/30 00:09:41;;;;;;;4.70;4.30;;;10.80;99.90;;;;;;5077040;28;20660;-68
2022/05/30 00:12:08;;;;;;;5.00;3.88;;;10.70;99.90;;;;;;5076825;28;20223;-69
2022/05/30 00:14:35;;;;;;;4.35;3.95;;;10.70;99.90;;;;;;5077020;28;20735;-68
2022/05/30 00:17:02;;;;;;;4.72;4.30;;;10.60;99.90;;;;;;5077103;28;20198;-68
2022/05/30 00:19:29;;;;;;;4.53;4.10;;;10.60;99.90;;;;;;5077171;28;20209;-68
2022/05/30 00:21:56;;;;;;;6.75;4.28;;;10.60;99.90;;;;;;5076970;28;20203;-68
2022/05/30 00:24:24;;;;;;;5.28;4.88;;;10.50;99.90;;;;;;5076800;28;20202;-68
2022/05/30 00:26:51;;;;;;;4.88;4.40;;;10.50;99.90;;;;;;5077047;28;20294;-68
2022/05/30 00:29:18;;;;;;;4.88;4.47;;;10.40;99.90;;;;;;5076878;28;20288;-68
2022/05/30 00:31:45;;;;;;;6.13;5.63;;;10.40;99.90;;;;;;5076681;28;20226;-68
2022/05/30 00:34:12;;;;;;;5.78;4.80;;;10.40;99.90;;;;;;5076715;28;20597;-68
2022/05/30 00:36:39;;;;;;;5.15;4.75;;;10.40;99.90;;;;;;5076790;28;20207;-68
2022/05/30 00:39:06;;;;;;;5.80;4.97;;;10.40;99.90;;;;;;5076638;28;20314;-68
2022/05/30 00:41:34;;;;;;;4.97;4.57;;;10.40;99.90;;;;;;5076726;28;20293;-68
2022/05/30 00:44:00;;;;;;;5.05;4.60;;;10.40;99.90;;;;;;5076485;28;20293;-68
2022/05/30 00:46:27;;;;;;;5.57;4.95;;;10.40;99.90;;;;;;5076474;28;20759;-68
2022/05/30 00:49:00;;;;;;;4.57;4.18;;;10.30;99.90;;;;;;5076536;28;20233;-68
2022/05/30 00:51:31;;;;;;;6.00;4.28;;;10.30;99.90;;;;;;5076139;28;20317;-68
2022/05/30 00:54:00;;;;;;;5.38;4.90;;;10.30;99.90;;;;;;5076139;28;20553;-68
2022/05/30 00:56:32;;;;;;;6.45;4.85;;;10.30;99.90;;;;;;5076409;28;20226;-68
2022/05/30 00:59:01;;;;;;;6.88;4.60;;;10.20;99.90;;;;;;5076447;28;20617;-68
2022/05/30 01:01:28;;;;;;;6.72;5.05;;;10.10;99.90;;;;;;5076335;28;20199;-68
2022/05/30 01:06:44;;;;;;;5.97;5.28;;;9.90;99.90;;;;;;5076320;28;20214;-68
2022/05/30 01:09:13;;;;;;;8.05;5.45;;;9.70;99.90;;;;;;5076217;28;20227;-68
2022/05/30 01:11:48;;;;;;;6.28;5.50;;;9.60;99.90;;;;;;5076098;28;20233;-68
2022/05/30 01:14:17;;;;;;;4.85;4.45;;;9.70;99.90;;;;;;5075900;28;20203;-68
2022/05/30 01:16:43;;;;;;;5.60;4.97;;;9.70;99.90;;;;;;5076108;28;20209;-68
2022/05/30 01:19:34;;;;;;;5.55;5.05;;;9.70;99.90;;;;;;5075990;28;20218;-68
2022/05/30 01:22:33;;;;;;;6.43;5.70;;;9.70;99.90;;;;;;5076015;28;20289;-68
2022/05/30 01:25:06;;;;;;;7.60;4.80;;;9.80;99.90;;;;;;5070806;28;20213;-68
2022/05/30 01:27:43;;;;;;;5.18;4.68;;;9.80;99.90;;;;;;5075867;28;20254;-68
2022/05/30 01:30:14;;;;;;;6.22;5.00;;;9.90;99.90;;;;;;5075886;28;20197;-68
2022/05/30 01:32:41;;;;;;;5.50;5.00;;;9.90;99.90;;;;;;5075469;28;20297;-68
2022/05/30 01:35:09;;;;;;;5.53;5.03;;;10.00;99.90;;;;;;5075658;28;20597;-68
2022/05/30 01:37:37;;;;;;;6.20;5.60;;;10.00;99.90;;;;;;5075672;28;20225;-68
2022/05/30 01:40:04;;;;;;;6.28;5.68;;;10.00;99.90;;;;;;5075663;28;20550;-69
2022/05/30 01:42:31;;;;;;;6.32;5.40;;;10.00;99.90;;;;;;5075386;28;20205;-68
2022/05/30 01:44:58;;;;;;;6.80;5.70;;;10.10;99.90;;;;;;5075515;28;20294;-68
2022/05/30 01:47:26;;;;;;;6.05;5.45;;;10.10;99.90;;;;;;5075442;28;20317;-68
2022/05/30 01:49:53;;;;;;;7.70;5.72;;;10.10;99.90;;;;;;5075434;28;20209;-68
2022/05/30 01:52:20;;;;;;;7.68;5.70;;;10.10;99.90;;;;;;5075162;28;20280;-68
2022/05/30 01:54:46;;;;;;;6.00;5.50;;;10.10;99.90;;;;;;5075102;28;20216;-68
2022/05/30 01:57:13;;;;;;;5.40;4.95;;;10.10;99.90;;;;;;5075077;28;20198;-68
2022/05/30 01:59:40;;;;;;;5.45;4.95;;;10.10;99.90;;;;;;5075320;28;20206;-68
2022/05/30 02:02:09;;;;;;;6.00;5.40;;;10.10;99.90;;;;;;5074995;28;20205;-69
2022/05/30 02:04:38;;;;;;;6.15;5.55;;;10.00;99.90;;;;;;5074877;28;20198;-68
2022/05/30 02:07:05;;;;;;;6.80;6.10;;;10.00;99.90;;;;;;5075069;28;20294;-69
2022/05/30 02:09:32;;;;;;;6.75;5.88;;;9.90;99.90;;;;;;5075104;28;20572;-68
2022/05/30 02:11:59;;;;;;;10.25;5.47;;;9.80;99.90;;;;;;5074960;28;20226;-68
2022/05/30 02:14:26;;;;;;;7.10;5.75;;;9.90;99.90;;;;;;5073943;28;20199;-68
2022/05/30 02:17:01;;;;;;;6.70;5.97;;;9.90;99.90;;;;;;5074866;28;20293;-68
2022/05/30 02:19:28;;;;;;;6.88;6.28;;;9.90;99.90;;;;;;5074990;28;20182;-68
2022/05/30 02:21:56;;;;;;;7.35;6.57;;;9.80;99.90;;;;;;5074812;28;20310;-68
2022/05/30 02:24:23;;;;;;;8.15;6.38;;;9.60;99.90;;;;;;5074493;28;20213;-68
2022/05/30 02:26:50;;;;;;;7.32;6.38;;;9.50;99.90;;;;;;5074743;28;20568;-68
2022/05/30 02:29:18;;;;;;;7.68;5.97;;;9.40;99.90;;;;;;5074553;28;20258;-68
2022/05/30 02:31:44;;;;;;;6.38;5.78;;;9.40;99.90;;;;;;5074528;28;20227;-68
2022/05/30 02:36:57;;;;;;;8.73;6.93;;;9.10;99.90;;;;;;5074599;28;20569;-68
2022/05/30 02:39:26;;;;;;;6.90;6.25;;;9.10;99.90;;;;;;5074828;28;20230;-68
2022/05/30 02:41:53;;;;;;;6.63;6.07;;;9.10;99.90;;;;;;5074344;28;20560;-68
2022/05/30 02:44:22;;;;;;;6.85;6.20;;;9.10;99.90;;;;;;5073992;28;20671;-68
2022/05/30 02:46:50;;;;;;;6.38;5.70;;;9.20;99.90;;;;;;5074320;28;20568;-68
2022/05/30 02:49:17;;;;;;;6.32;5.72;;;9.30;99.90;;;;;;5074270;28;20648;-68
2022/05/30 02:51:44;;;;;;;6.70;5.78;;;9.20;99.90;;;;;;5074554;28;20313;-68
2022/05/30 02:54:13;;;;;;;8.77;6.63;;;9.20;99.90;;;;;;5073784;28;20584;-68
2022/05/30 02:56:41;;;;;;;7.15;6.20;;;9.30;99.90;;;;;;5073866;28;20217;-68
2022/05/30 02:59:08;;;;;;;7.30;5.75;;;9.40;99.90;;;;;;5073781;28;20223;-68
2022/05/30 03:01:36;;;;;;;6.30;5.80;;;9.40;99.90;;;;;;5073934;28;20205;-69
2022/05/30 03:04:05;;;;;;;6.70;6.10;;;9.40;99.90;;;;;;5073740;28;20218;-68
2022/05/30 03:06:32;;;;;;;6.90;6.20;;;9.40;99.90;;;;;;5073915;28;20252;-68
2022/05/30 03:08:59;;;;;;;7.50;6.05;;;9.50;99.90;;;;;;5073904;28;20225;-68
2022/05/30 03:11:27;;;;;;;6.90;5.85;;;9.40;99.90;;;;;;5073785;28;20198;-68
2022/05/30 03:13:54;;;;;;;6.20;5.60;;;9.30;99.90;;;;;;5073565;28;20661;-68
2022/05/30 03:16:21;;;;;;;6.85;5.85;;;9.30;99.90;;;;;;5073849;28;20209;-68
2022/05/30 03:18:48;;;;;;;6.50;5.80;;;9.30;99.90;;;;;;5073539;28;20727;-68
2022/05/30 03:21:15;;;;;;;6.15;5.55;;;9.30;99.90;;;;;;5073819;28;20203;-68
2022/05/30 03:23:42;;;;;;;6.70;5.68;;;9.40;99.90;;;;;;5073435;28;20194;-68
2022/05/30 03:26:10;;;;;;;6.53;5.80;;;9.50;99.90;;;;;;5073347;28;20294;-69
2022/05/30 03:28:38;;;;;;;6.35;5.75;;;9.50;99.90;;;;;;5073737;28;20236;-68
2022/05/30 03:31:08;;;;;;;6.85;6.15;;;9.50;99.90;;;;;;5073802;28;20236;-68
2022/05/30 03:33:34;;;;;;;6.10;5.35;;;9.30;99.90;;;;;;5073226;28;20222;-68
2022/05/30 03:36:01;;;;;;;7.05;6.35;;;9.10;99.90;;;;;;5073570;28;20210;-68
2022/05/30 03:38:28;;;;;;;6.30;5.70;;;9.00;99.90;;;;;;5073517;28;20653;-68
2022/05/30 03:40:55;;;;;;;6.18;5.22;;;9.00;99.90;;;;;;5073384;28;20202;-69
2022/05/30 03:43:23;;;;;;;6.65;5.53;;;9.00;99.90;;;;;;5073233;28;20198;-68
2022/05/30 03:45:51;;;;;;;6.10;5.50;;;9.10;99.90;;;;;;5073563;28;20209;-68
2022/05/30 03:48:20;;;;;;;6.35;5.13;;;9.20;99.90;;;;;;5073438;28;20219;-68
2022/05/30 03:50:49;;;;;;;6.63;5.97;;;9.30;99.90;;;;;;5073480;28;20199;-68
2022/05/30 03:53:16;;;;;;;5.38;4.88;;;9.30;99.90;;;;;;5073083;28;20218;-68
2022/05/30 03:55:45;;;;;;;6.22;5.63;;;9.30;99.90;;;;;;5073503;28;20307;-68
2022/05/30 03:58:14;;;;;;;5.82;5.22;;;9.40;99.90;;;;;;5073425;28;20309;-68
2022/05/30 04:00:43;;;;;;;6.20;5.60;;;9.40;99.90;;;;;;5073162;28;20203;-68
2022/05/30 04:03:12;;;;;;;7.85;6.20;;;9.40;99.90;;;;;;5073048;28;20203;-68
2022/05/30 04:05:39;;;;;;;6.13;5.43;;;9.40;99.90;;;;;;5073357;28;20206;-68
2022/05/30 04:08:07;;;;;;;6.97;6.00;;;9.30;99.90;;;;;;5073330;28;20318;-68
2022/05/30 04:10:34;;;;;;;6.95;6.30;;;9.20;99.90;;;;;;5073351;28;20560;-68
2022/05/30 04:13:03;;;;;;;7.13;5.85;;;9.00;99.90;;;;;;5072842;28;20229;-68
2022/05/30 04:15:30;;;;;;;7.30;6.20;;;8.80;99.90;;;;;;5073155;28;20198;-68
2022/05/30 04:17:57;;;;;;;6.88;6.18;;;8.80;99.90;;;;;;5073144;28;20594;-69
2022/05/30 04:20:25;;;;;;;6.07;5.47;;;8.90;99.90;;;;;;5073213;28;20202;-68
2022/05/30 04:22:52;;;;;;;7.03;6.30;;;9.00;99.90;;;;;;5072811;28;20203;-68
2022/05/30 04:25:19;;;;;;;6.90;6.30;;;8.90;99.90;;;;;;5073119;28;20199;-68
2022/05/30 04:27:46;;;;;;;7.38;5.63;;;8.90;99.90;;;;;;5072961;28;20313;-68
2022/05/30 04:30:13;;;;;;;6.80;6.20;;;8.90;99.90;;;;;;5073142;28;20683;-68
2022/05/30 04:32:40;;;;;;;7.70;5.93;;;8.90;99.90;;;;;;5072636;28;20223;-69
2022/05/30 04:35:09;;;;;;;7.90;6.78;;;8.90;99.90;;;;;;5073058;28;20297;-69
2022/05/30 04:37:37;;;;;;;7.28;6.50;;;8.90;99.90;;;;;;5073099;28;20237;-69
2022/05/30 04:40:05;;;;;;;7.53;6.70;;;9.00;99.90;;;;;;5076810;28;20213;-68
2022/05/30 04:42:32;;;;;;;8.18;6.45;;;9.00;99.90;;;;;;5076263;28;20194;-69
2022/05/30 04:44:59;;;;;;;6.60;6.00;;;9.00;99.90;;;;;;5076671;28;20298;-69
2022/05/30 04:47:26;;;;;;;7.38;6.68;;;9.10;99.90;;;;;;5076472;28;20222;-69
2022/05/30 04:49:53;;;;;;;8.15;7.03;;;9.10;99.90;;;;;;5076611;28;20229;-69
2022/05/30 04:52:20;;;;;;;7.63;6.55;;;9.20;99.90;;;;;;5076281;28;20235;-69
2022/05/30 04:54:48;;;;;;;7.85;7.15;;;9.20;99.90;;;;;;5076334;28;20213;-69
2022/05/30 04:57:15;;;;;;;7.20;6.50;;;9.20;99.90;;;;;;5076355;28;20207;-69
2022/05/30 04:59:42;;;;;;;8.02;6.88;;;9.20;99.90;;;;;;5076436;28;20209;-69
2022/05/30 05:02:10;;;;;;;8.52;7.60;;;9.00;99.90;;;;;;5075951;28;20209;-69
2022/05/30 05:04:39;;;;;;;10.07;7.45;;;8.90;99.90;;;;;;5076280;28;20203;-69
2022/05/30 05:07:06;;;;;;;8.70;7.80;;;8.80;99.90;;;;;;5076218;28;20215;-69
2022/05/30 05:09:45;;;;;;;9.32;7.95;;;8.80;99.90;;;;;;5076363;28;20211;-69
2022/05/30 05:12:15;;;;;;;10.98;7.90;;;8.80;99.90;;;;;;5075976;28;20568;-69
2022/05/30 05:14:42;;;;;;;9.13;7.93;;;8.80;99.90;;;;;;5076095;28;20543;-69
2022/05/30 05:17:10;;;;;;;8.60;7.70;;;8.90;99.90;;;;;;5075858;28;20241;-69
2022/05/30 05:19:38;;;;;;;9.00;8.10;;;8.90;99.90;;;;;;5076073;28;20202;-69
2022/05/30 05:22:06;;;;;;;8.55;7.40;;;8.80;99.90;;;;;;5075617;28;20213;-71
2022/05/30 05:24:33;;;;;;;9.48;8.10;;;8.80;99.90;;;;;;5075936;28;20252;-69
2022/05/30 05:27:00;;;;;;;10.80;8.35;;;9.00;99.90;;;;;;5075727;28;20198;-69
2022/05/30 05:29:28;;;;;;;9.70;8.25;;;9.00;99.90;;;;;;5075932;28;20229;-69
2022/05/30 05:31:55;;;;;;;9.10;8.20;;;9.10;99.90;;;;;;5076012;28;20221;-69
2022/05/30 05:34:22;;;;;;;8.77;7.63;;;9.10;99.90;;;;;;5075562;28;20232;-69
2022/05/30 05:36:50;;;;;;;9.30;8.30;;;9.10;99.90;;;;;;5075663;28;20202;-69
2022/05/30 05:39:18;;;;;;;9.82;8.82;;;9.20;99.90;;;;;;5075681;28;20650;-69
2022/05/30 05:41:45;;;;;;;8.50;7.60;;;9.20;99.90;;;;;;5075462;28;20665;-69
2022/05/30 05:44:14;;;;;;;13.70;8.30;;;9.20;99.90;;;;;;5075297;28;20653;-69
2022/05/30 05:46:42;;;;;;;9.50;8.63;;;9.40;99.90;;;;;;5075544;28;20198;-69
2022/05/30 05:49:10;;;;;;;8.52;7.65;;;9.40;99.90;;;;;;5075198;28;20313;-69
2022/05/30 05:51:38;;;;;;;10.75;8.93;;;9.40;99.90;;;;;;5075415;28;20252;-69
2022/05/30 05:54:05;;;;;;;14.02;10.00;;;9.40;99.90;;;;;;5074765;28;20700;-69
2022/05/30 05:56:32;;;;;;;10.30;9.00;;;9.40;99.90;;;;;;5075192;28;20213;-69
2022/05/30 05:58:59;;;;;;;11.43;9.45;;;9.50;99.90;;;;;;5075011;28;20222;-69
2022/05/30 06:01:28;;;;;;;9.98;8.75;;;9.60;99.90;;;;;;5075279;28;20210;-69
2022/05/30 06:03:59;;;;;;;10.60;9.35;;;9.70;99.90;;;;;;5074778;28;20199;-69
2022/05/30 06:06:26;;;;;;;11.82;8.73;;;9.70;99.90;;;;;;5074923;28;20207;-69
2022/05/30 06:08:54;;;;;;;9.38;8.38;;;9.80;99.90;;;;;;5075093;28;20219;-69
2022/05/30 06:11:21;;;;;;;11.70;8.70;;;9.90;99.90;;;;;;5074867;28;20207;-69
2022/05/30 06:13:49;;;;;;;10.68;8.52;;;9.90;99.90;;;;;;5074721;28;20227;-69
2022/05/30 06:16:18;;;;;;;11.15;9.32;;;10.00;99.90;;;;;;5074886;28;20214;-69
2022/05/30 06:18:45;;;;;;;15.35;8.60;;;10.20;99.90;;;;;;5075300;28;20231;-69
2022/05/30 06:21:13;;;;;;;9.60;8.60;;;10.30;99.90;;;;;;5074749;28;20206;-69
2022/05/30 06:23:41;;;;;;;10.82;9.70;;;10.30;99.90;;;;;;5074647;28;20286;-69
2022/05/30 06:26:10;;;;;;;10.70;9.60;;;10.30;99.90;;;;;;5074732;28;20199;-68
2022/05/30 06:28:37;;;;;;;10.27;8.95;;;10.30;99.90;;;;;;5074596;28;20233;-69
2022/05/30 06:31:08;;;;;;;9.95;8.95;;;10.40;99.90;;;;;;5074369;28;20203;-69
2022/05/30 06:33:35;;;;;;;10.95;9.85;;;10.40;99.90;;;;;;5074388;28;20226;-69
2022/05/30 06:36:04;;;;;;;12.63;9.93;;;10.40;99.90;;;;;;5074574;28;20615;-69
2022/05/30 06:38:32;;;;;;;10.68;8.80;;;10.50;99.90;;;;;;5074516;28;20310;-69
2022/05/30 06:41:08;;;;;;;11.80;10.02;;;10.50;99.90;;;;;;5074369;28;20665;-69
2022/05/30 06:43:35;;;;;;;11.88;10.68;;;10.60;99.90;;;;;;5074031;28;20205;-69
2022/05/30 06:46:02;;;;;;;10.63;9.00;;;10.70;99.90;;;;;;5074396;28;20240;-69
2022/05/30 06:48:29;;;;;;;12.75;9.93;;;10.80;99.90;;;;;;5074312;28;20223;-69
2022/05/30 06:50:56;;;;;;;10.63;9.18;;;11.00;99.90;;;;;;5074265;28;20209;-69
2022/05/30 06:53:23;;;;;;;10.02;9.02;;;10.90;99.90;;;;;;5073860;28;20257;-69
2022/05/30 06:55:51;;;;;;;11.45;10.25;;;11.00;99.90;;;;;;5074114;28;20202;-69
2022/05/30 06:58:18;;;;;;;12.25;8.90;;;11.10;99.90;;;;;;5073908;28;20225;-69
2022/05/30 07:00:46;;;;;;;12.95;9.20;;;11.50;99.90;;;;;;5073462;28;20256;-69
2022/05/30 07:03:14;;;;;;;15.73;9.40;;;11.80;99.90;;;;;;5073729;28;20293;-69
2022/05/30 07:05:42;;;;;;;10.57;8.43;;;12.00;99.90;;;;;;5073917;28;20198;-69
2022/05/30 07:08:09;;;;;;;10.65;9.13;;;12.00;99.90;;;;;;5073685;28;20227;-68
2022/05/30 07:10:38;;;;;;;10.23;9.23;;;12.20;99.90;;;;;;5073955;28;20209;-69
2022/05/30 07:13:07;;;;;;;10.07;8.75;;;12.60;99.90;;;;;;5073697;28;20625;-68
2022/05/30 07:15:36;;;;;;;10.32;9.30;;;12.90;99.90;;;;;;5073892;28;20205;-69
2022/05/30 07:18:08;;;;;;;10.75;7.70;;;12.90;99.90;;;;;;5073779;28;20254;-68
2022/05/30 07:20:35;;;;;;;10.57;7.88;;;12.80;99.90;;;;;;5073925;28;20194;-68
2022/05/30 07:23:02;;;;;;;8.20;7.40;;;12.60;99.90;;;;;;5073424;28;20756;-68
2022/05/30 07:25:29;;;;;;;7.80;7.10;;;12.50;99.90;;;;;;5073756;28;20260;-68
2022/05/30 07:27:55;;;;;;;7.97;6.55;;;12.50;99.90;;;;;;5073739;28;20222;-68
2022/05/30 07:30:24;;;;;;;7.22;6.40;;;12.60;99.90;;;;;;5073514;28;20293;-68
2022/05/30 07:32:50;;;;;;;7.00;6.30;;;12.80;99.90;;;;;;5073402;28;20293;-68
2022/05/30 07:35:18;;;;;;;7.55;6.65;;;12.80;99.90;;;;;;5073565;28;20203;-68
2022/05/30 07:37:44;;;;;;;10.20;7.22;;;12.70;99.90;;;;;;5073510;28;20236;-69
2022/05/30 07:40:13;;;;;;;7.22;6.53;;;12.80;99.90;;;;;;5073624;28;20293;-68
2022/05/30 07:42:40;;;;;;;7.57;6.47;;;13.10;99.90;;;;;;5073381;28;20213;-68
2022/05/30 07:45:09;;;;;;;8.43;6.05;;;13.30;99.90;;;;;;5073533;28;20258;-68
2022/05/30 07:47:37;;;;;;;6.70;6.10;;;14.10;99.90;;;;;;5073493;28;20226;-68
2022/05/30 07:50:04;;;;;;;5.85;5.35;;;14.90;99.30;;;;;;5073584;28;20263;-68
2022/05/30 07:52:33;;;;;;;5.78;4.88;;;15.80;97.30;;;;;;5073262;28;20202;-69
2022/05/30 07:55:02;;;;;;;6.45;5.95;;;16.50;95.20;;;;;;5073111;28;20313;-68
2022/05/30 08:00:12;;;;;;;6.35;4.88;;;17.30;91.30;;;;;;5072946;28;20233;-69
2022/05/30 08:02:40;;;;;;;4.90;4.50;;;18.10;90.60;;;;;;5073079;28;20305;-69
2022/05/30 08:05:10;;;;;;;5.80;4.65;;;19.10;84.60;;;;;;5073340;28;20203;-69
2022/05/30 08:07:36;;;;;;;4.45;4.05;;;18.90;82.10;;;;;;5073074;28;20309;-69
2022/05/30 08:10:04;;;;;;;7.97;5.00;;;18.60;84.00;;;;;;5073395;28;20214;-69
2022/05/30 08:12:31;;;;;;;3.95;3.65;;;18.50;82.50;;;;;;5073261;28;20209;-69
2022/05/30 08:14:58;;;;;;;3.45;3.25;;;17.80;81.30;;;;;;5077210;28;20622;-69
2022/05/30 08:17:25;;;;;;;3.92;3.05;;;17.30;79.70;;;;;;5077103;28;20222;-69
2022/05/30 08:19:53;;;;;;;4.53;4.13;;;17.10;85.00;;;;;;5076995;28;20214;-69
2022/05/30 08:22:22;;;;;;;5.28;4.78;;;16.90;84.30;;;;;;5076962;28;20202;-69
2022/05/30 08:24:51;;;;;;;5.00;4.45;;;16.50;87.30;;;;;;5077053;28;20209;-69
2022/05/30 08:27:19;;;;;;;8.27;4.00;;;16.50;89.50;;;;;;5077069;28;20567;-69
2022/05/30 08:29:46;;;;;;;5.63;4.30;;;16.50;88.30;;;;;;5077042;28;20230;-69
2022/05/30 08:32:14;;;;;;;4.32;3.92;;;17.00;87.10;;;;;;5076740;28;20206;-69
2022/05/30 08:34:42;;;;;;;3.07;2.87;;;17.30;86.70;;;;;;5076848;28;20226;-69
2022/05/30 08:37:11;;;;;;;4.30;3.43;;;18.40;81.00;;;;;;5076752;28;20456;-69
2022/05/30 08:42:27;;;;;;;3.47;3.17;;;20.20;77.80;;;;;;5076643;28;20424;-70
2022/05/30 08:44:54;;;;;;;3.07;2.87;;;21.00;67.30;;;;;;5076733;28;20495;-70
2022/05/30 08:47:38;;;;;;;2.90;2.70;;;21.50;64.10;;;;;;5076564;28;20447;-70
2022/05/30 08:50:11;;;;;;;3.03;2.83;;;22.40;61.80;;;;;;5076758;28;20782;-69
2022/05/30 08:52:47;;;;;;;3.00;2.80;;;22.80;57.00;;;;;;5076260;28;20457;-71
2022/05/30 08:55:22;;;;;;;3.10;2.90;;;23.20;56.20;;;;;;5076493;28;20480;-70
2022/05/30 08:57:58;;;;;;;3.00;2.80;;;23.80;55.50;;;;;;5076279;28;20551;-70
2022/05/30 09:00:29;;;;;;;3.03;2.80;;;25.10;51.50;;;;;;5076251;28;20925;-70
2022/05/30 09:03:01;;;;;;;2.73;2.53;;;26.20;49.90;;;;;;5076223;28;20453;-70
2022/05/30 09:05:33;;;;;;;2.90;2.70;;;26.50;47.10;;;;;;5076126;28;20437;-70
2022/05/30 09:08:04;;;;;;;3.00;2.80;;;26.60;45.40;;;;;;5076350;28;20467;-70
2022/05/30 09:10:36;;;;;;;3.23;2.93;;;27.50;45.10;;;;;;5076281;28;20445;-68
2022/05/30 09:13:07;;;;;;;3.00;2.80;;;27.80;41.10;;;;;;5075943;28;20452;-70
2022/05/30 09:15:42;;;;;;;2.70;2.50;;;27.30;41.00;;;;;;5076088;28;20484;-70
2022/05/30 09:18:13;;;;;;;2.80;2.23;;;27.80;40.30;;;;;;5076125;28;20469;-70
2022/05/30 09:20:41;;;;;;;2.60;2.40;;;28.20;42.00;;;;;;5075909;28;20931;-68
2022/05/30 09:23:11;;;;;;;2.93;2.60;;;28.20;38.50;;;;;;5075625;28;20463;-70
2022/05/30 09:26:00;;;;;;;6.83;2.77;;;27.90;38.40;;;;;;5075702;28;20445;-70
2022/05/30 09:28:29;;;;;;;2.57;2.37;;;27.60;37.50;;;;;;5075972;28;20490;-68
2022/05/30 09:31:04;;;;;;;2.70;2.50;;;27.50;40.20;;;;;;5075963;28;20444;-68
2022/05/30 09:33:33;;;;;;;2.87;2.67;;;27.80;41.10;;;;;;5075492;28;20447;-68
2022/05/30 09:36:12;;;;;;;3.10;2.40;;;28.30;40.30;;;;;;5075607;28;20449;-68
2022/05/30 09:38:43;;;;;;;2.73;2.50;;;28.50;36.50;;;;;;5075463;28;20479;-68
2022/05/30 09:41:16;;;;;;;2.20;2.10;;;29.50;38.70;;;;;;5075554;28;20897;-68
2022/05/30 09:43:48;;;;;;;2.63;2.13;;;30.40;36.70;;;;;;5075371;28;20447;-68
2022/05/30 09:46:18;;;;;;;2.97;2.50;;;31.40;34.00;;;;;;5075672;28;20538;-68
2022/05/30 09:49:01;;;;;;;3.57;2.40;;;30.90;32.60;;;;;;5075500;28;20822;-68
2022/05/30 09:51:33;;;;;;;3.60;3.30;;;30.50;33.60;;;;;;5075535;28;20456;-68
2022/05/30 09:54:01;;;;;;;2.90;2.70;;;30.60;33.20;;;;;;5075055;28;20489;-68
2022/05/30 09:56:30;;;;;;;2.63;2.43;;;30.90;32.70;;;;;;5075246;28;20491;-68
2022/05/30 09:59:02;;;;;;;2.50;2.30;;;31.90;34.00;;;;;;5075039;28;20620;-68
2022/05/30 10:01:32;;;;;;;2.57;2.37;;;30.20;32.80;;;;;;5075151;28;20438;-68
2022/05/30 10:04:15;;;;;;;2.27;2.00;;;27.70;34.40;;;;;;5074989;28;20443;-70
2022/05/30 10:06:42;;;;;;;2.60;2.40;;;25.10;40.70;;;;;;5075231;28;20443;-70
2022/05/30 10:09:13;;;;;;;2.17;1.97;;;23.80;40.90;;;;;;5074789;28;21068;-70
2022/05/30 10:11:40;;;;;;;1.87;1.73;;;24.00;41.50;;;;;;5075114;28;20807;-69
2022/05/30 10:14:29;;;;;;;1.90;1.80;;;24.10;39.70;;;;;;5074792;28;20483;-70
2022/05/30 10:17:01;;;;;;;3.00;1.90;;;24.00;39.70;;;;;;5070575;28;20463;-70
2022/05/30 10:19:31;;;;;;;2.10;2.00;;;25.20;39.70;;;;;;5074968;28;20479;-70
2022/05/30 10:28:15;;;;;;;2.10;1.83;;;26.30;35.20;;;;;;5074726;28;20444;-68
2022/05/30 10:30:52;;;;;;;1.83;1.70;;;26.20;35.10;;;;;;5074718;28;20421;-70
2022/05/30 10:33:30;;;;;;;1.80;1.70;;;25.60;35.90;;;;;;5074508;28;20527;-70
2022/05/30 10:36:03;;;;;;;1.80;1.70;;;24.40;36.50;;;;;;5073873;28;20842;-69
2022/05/30 10:38:47;;;;;;;2.23;1.70;;;23.50;38.30;;;;;;5074333;28;20474;-70
2022/05/30 10:41:21;;;;;;;2.40;1.60;;;22.50;38.80;;;;;;5074572;28;20430;-69
2022/05/30 10:43:58;;;;;;;2.87;1.50;;;21.30;39.00;;;;;;5074093;28;20444;-69
2022/05/30 10:46:33;;;;;;;1.90;1.70;;;21.20;41.00;;;;;;5074463;28;20440;-69
2022/05/30 10:49:04;;;;;;;1.40;1.33;;;21.60;42.80;;;;;;5074400;28;20472;-69
2022/05/30 10:51:39;;;;;;;2.37;1.80;;;22.00;41.70;;;;;;5074271;28;20853;-70
2022/05/30 10:54:12;;;;;;;2.17;1.90;;;22.20;40.60;;;;;;5073873;28;20487;-69
2022/05/30 10:56:43;;;;;;;1.80;1.70;;;22.00;40.80;;;;;;5074241;28;20459;-69
2022/05/30 10:59:20;;;;;;;2.00;1.70;;;21.70;40.80;;;;;;5074187;28;20469;-69
2022/05/30 11:01:51;;;;;;;2.20;2.00;;;21.60;42.50;;;;;;5074048;28;20449;-69
2022/05/30 11:04:33;;;;;;;2.17;1.97;;;21.50;42.70;;;;;;5074008;28;20455;-69
2022/05/30 11:07:09;;;;;;;1.80;1.70;;;21.40;44.20;;;;;;5074521;28;20440;-69
2022/05/30 11:09:41;;;;;;;3.83;1.70;;;21.10;43.20;;;;;;5074073;28;20432;-69
2022/05/30 11:12:16;;;;;;;2.37;2.17;;;20.70;44.40;;;;;;5073824;28;20809;-70
2022/05/30 11:14:51;;;;;;;2.60;1.80;;;20.50;45.20;;;;;;5073911;28;20485;-69
2022/05/30 11:17:23;;;;;;;2.37;2.10;;;20.40;44.00;;;;;;5073841;28;20443;-69
2022/05/30 11:20:01;;;;;;;2.27;2.07;;;20.20;44.30;;;;;;5073935;28;20440;-69
2022/05/30 11:22:37;;;;;;;2.63;1.97;;;20.20;45.30;;;;;;5073763;28;20532;-69
2022/05/30 11:25:06;;;;;;;2.30;2.10;;;20.10;44.50;;;;;;5074034;28;20545;-69
2022/05/30 11:27:40;;;;;;;1.60;1.50;;;20.10;44.40;;;;;;5073728;28;20541;-69
2022/05/30 11:30:18;;;;;;;2.65;1.60;;;19.60;44.10;;;;;;5073856;28;20425;-69
2022/05/30 11:33:13;;;;;;;1.75;1.65;;;18.70;45.10;;;;;;5073556;28;20576;-69
2022/05/30 11:35:46;;;;;;;1.92;1.83;;;18.70;47.60;;;;;;5073596;28;20222;-69
2022/05/30 11:38:30;;;;;;;1.92;1.55;;;18.50;45.10;;;;;;5074127;28;20309;-69
2022/05/30 11:41:06;;;;;;;2.47;2.10;;;18.70;46.90;;;;;;5073619;28;20209;-69
2022/05/30 11:43:45;;;;;;;1.95;1.85;;;18.60;44.80;;;;;;5073189;28;20203;-69
2022/05/30 11:46:22;;;;;;;1.80;1.70;;;18.50;45.40;;;;;;5073374;28;20199;-69
2022/05/30 11:48:58;;;;;;;2.17;1.70;;;18.70;46.90;;;;;;5073571;28;20558;-69
2022/05/30 11:51:38;;;;;;;2.53;2.33;;;19.00;44.90;;;;;;5073543;28;20527;-69
2022/05/30 11:54:30;;;;;;;1.80;1.70;;;19.20;45.10;;;;;;5072948;28;20208;-69
2022/05/30 11:57:09;;;;;;;2.70;2.00;;;19.50;44.10;;;;;;5073508;28;20443;-69
2022/05/30 11:59:53;;;;;;;1.90;1.80;;;19.70;42.90;;;;;;5073541;28;20436;-69
2022/05/30 12:02:23;;;;;;;3.60;2.07;;;19.80;42.40;;;;;;5073203;28;20479;-69
2022/05/30 12:05:25;;;;;;;2.37;2.00;;;20.00;43.70;;;;;;5073177;28;20446;-69
2022/05/30 12:08:20;;;;;;;1.70;1.60;;;20.40;41.10;;;;;;5073401;28;20578;-69
2022/05/30 12:11:11;;;;;;;2.00;1.90;;;21.00;44.00;;;;;;5073355;28;20520;-69
2022/05/30 12:13:55;;;;;;;2.17;1.97;;;21.20;42.00;;;;;;5073164;28;20453;-69
2022/05/30 12:16:40;;;;;;;2.53;1.53;;;21.40;41.00;;;;;;5073142;28;21064;-69
2022/05/30 12:25:46;;;;;;;1.90;1.80;;;21.50;39.80;;;;;;5073219;28;20479;-69
2022/05/30 12:28:45;;;;;;;1.80;1.70;;;21.30;41.20;;;;;;5073181;28;20471;-69
2022/05/30 12:31:38;;;;;;;1.70;1.60;;;20.90;42.90;;;;;;5073100;28;20817;-69
2022/05/30 12:34:06;;;;;;;2.00;1.90;;;20.30;41.60;;;;;;5072997;28;20448;-69
2022/05/30 12:36:39;;;;;;;2.50;1.90;;;19.60;42.90;;;;;;5073169;28;20570;-69
2022/05/30 12:39:36;;;;;;;1.87;1.77;;;19.40;43.70;;;;;;5073455;28;20555;-69
2022/05/30 12:42:08;;;;;;;2.60;2.40;;;19.00;43.90;;;;;;5073098;28;20804;-70
2022/05/30 12:44:57;;;;;;;2.72;2.45;;;18.70;44.00;;;;;;5073030;28;20569;-69
2022/05/30 12:47:31;;;;;;;2.15;1.95;;;18.70;44.60;;;;;;5072698;28;20680;-69
2022/05/30 12:50:43;;;;;;;3.97;2.30;;;18.50;44.30;;;;;;5072860;28;20204;-69
2022/05/30 12:53:11;;;;;;;2.40;2.20;;;18.80;46.10;;;;;;5010625;28;20301;-69
2022/05/30 12:55:40;;;;;;;4.40;2.30;;;19.30;46.70;;;;;;5010888;28;20507;-69
2022/05/30 12:58:08;;;;;;;3.13;2.20;;;19.60;43.70;;;;;;5044817;28;20473;-69
2022/05/30 13:00:53;;;;;;;2.40;2.20;;;19.70;43.90;;;;;;5075602;28;20538;-69
2022/05/30 13:03:44;;;;;;;3.43;2.10;;;19.50;43.40;;;;;;5075961;28;20442;-69
2022/05/30 13:06:18;;;;;;;2.30;2.07;;;19.20;43.20;;;;;;5076172;28;20824;-69
2022/05/30 13:09:17;;;;;;;3.08;2.42;;;19.00;44.10;;;;;;5075874;28;20469;-69
2022/05/30 13:12:21;;;;;;;2.78;2.45;;;18.80;44.40;;;;;;5075975;28;20214;-69
2022/05/30 13:15:15;;;;;;;2.00;1.80;;;19.00;46.40;;;;;;5076107;28;20235;-69
2022/05/30 13:18:03;;;;;;;2.27;2.10;;;19.20;44.00;;;;;;5075905;28;20990;-69
2022/05/30 13:20:42;;;;;;;2.50;2.30;;;19.00;43.00;;;;;;5076169;28;20782;-69
2022/05/30 13:23:09;;;;;;;2.85;2.42;;;18.70;42.60;;;;;;5075918;28;20198;-69
2022/05/30 13:25:39;;;;;;;3.08;2.30;;;18.60;45.00;;;;;;5076243;28;20583;-70
2022/05/30 13:28:09;;;;;;;2.55;2.13;;;18.40;44.40;;;;;;5076012;28;20223;-69
2022/05/30 13:30:37;;;;;;;2.60;2.28;;;18.30;49.10;;;;;;5075794;28;20199;-69
2022/05/30 13:33:12;;;;;;;2.28;2.15;;;18.20;45.20;;;;;;5075600;28;20209;-69